Time;durP1;ratioP1;P1;durP2;ratioP2;P2;SDS_P1;SDS_P2;PMS_P1;PMS_P2;Temp;Humidity;BMP_temperature;BMP_pressure;BME280_temperature;BME280_humidity;BME280_pressure;Samples;Min_cycle;Max_cycle;Signal;HPM_P1;HPM_P2
2020/03/16 00:00:25;;;;;;;2.9;1.5;;;;;;;6.37;55;938.2383;;;;
2020/03/16 00:02:46;;;;;;;1.8;1.3;;;;;;;6.2;55.76953;938.3176;;;;
2020/03/16 00:05:11;;;;;;;3.2;1.9;;;;;;;6.06;56.24902;938.2208;;;;
2020/03/16 00:07:36;;;;;;;3.4;1.8;;;;;;;6.12;56.14355;938.3075;;;;
2020/03/16 00:10:01;;;;;;;3.1;1.4;;;;;;;5.88;56.82227;938.3709;;;;
2020/03/16 00:12:26;;;;;;;3.6;1.7;;;;;;;5.7;58.19824;938.3619;;;;
2020/03/16 00:14:51;;;;;;;3.1;1.5;;;;;;;5.55;58.79883;938.4158;;;;
2020/03/16 00:17:17;;;;;;;2.1;1.4;;;;;;;5.51;59.47168;938.4123;;;;
2020/03/16 00:19:42;;;;;;;3.4;1.3;;;;;;;5.33;59.15332;938.3334;;;;
2020/03/16 00:22:07;;;;;;;2.9;1.3;;;;;;;5.45;58.80762;938.3931;;;;
2020/03/16 00:24:32;;;;;;;2.3;1.3;;;;;;;5.58;58.4082;938.4426;;;;
2020/03/16 00:26:57;;;;;;;2.2;1.2;;;;;;;5.47;57.34375;938.3267;;;;
2020/03/16 00:29:22;;;;;;;2.9;1.3;;;;;;;5.73;56.09375;938.3154;;;;
2020/03/16 00:31:50;;;;;;;3.1;1.3;;;;;;;5.85;56.52539;938.3275;;;;
2020/03/16 00:34:15;;;;;;;4;1.5;;;;;;;5.92;56.4668;938.3826;;;;
2020/03/16 00:36:40;;;;;;;2.5;1.2;;;;;;;5.94;56.93262;938.2963;;;;
2020/03/16 00:39:05;;;;;;;2.5;1.2;;;;;;;5.79;57.76074;938.3186;;;;
2020/03/16 00:41:30;;;;;;;2.8;1.4;;;;;;;5.64;58.36035;938.3113;;;;
2020/03/16 00:44:22;;;;;;;2.7;1.4;;;;;;;5.55;58.4707;938.4473;;;;
2020/03/16 00:46:23;;;;;;;3.3;1.6;;;;;;;5.58;58.41992;938.2911;;;;
2020/03/16 00:48:46;;;;;;;2.6;1.5;;;;;;;5.55;59.44336;938.4695;;;;
2020/03/16 00:51:11;;;;;;;2.6;1.4;;;;;;;5.43;59.9248;938.4726;;;;
2020/03/16 00:53:36;;;;;;;2.7;1.5;;;;;;;5.24;60.75391;938.4675;;;;
2020/03/16 00:56:01;;;;;;;3.3;1.3;;;;;;;5.16;60.96777;938.3865;;;;
2020/03/16 00:58:26;;;;;;;3.4;1.4;;;;;;;5.01;60.86719;938.412;;;;
2020/03/16 01:00:52;;;;;;;2.6;1.5;;;;;;;4.88;61.93066;938.3423;;;;
2020/03/16 01:03:17;;;;;;;2.7;1.4;;;;;;;4.96;60.99414;938.4316;;;;
2020/03/16 01:05:42;;;;;;;2.8;1.3;;;;;;;4.89;61.1543;938.4753;;;;
2020/03/16 01:08:07;;;;;;;1.9;1.2;;;;;;;4.87;60.74707;938.4835;;;;
2020/03/16 01:10:32;;;;;;;1.7;1;;;;;;;4.92;59.7041;938.36;;;;
2020/03/16 01:12:57;;;;;;;2.5;1.1;;;;;;;5.07;58.46289;938.3872;;;;
2020/03/16 01:15:22;;;;;;;2.5;1.4;;;;;;;5.27;58.56934;938.4534;;;;
2020/03/16 01:17:47;;;;;;;1.5;1.1;;;;;;;5.35;58.06152;938.4431;;;;
2020/03/16 01:20:13;;;;;;;1.7;1.1;;;;;;;5.33;57.20215;938.3801;;;;
2020/03/16 01:22:38;;;;;;;2.7;1.2;;;;;;;5.58;57.19043;938.4594;;;;
2020/03/16 01:25:03;;;;;;;3.7;1.1;;;;;;;5.52;56.86621;938.4712;;;;
2020/03/16 01:27:30;;;;;;;1.4;1;;;;;;;5.48;57.60645;938.5135;;;;
2020/03/16 01:29:56;;;;;;;1.5;1;;;;;;;5.45;57.02539;938.4739;;;;
2020/03/16 01:32:20;;;;;;;1.4;1;;;;;;;5.48;57.0293;938.4967;;;;
2020/03/16 01:34:46;;;;;;;2.3;1.2;;;;;;;5.64;56.65625;938.5034;;;;
2020/03/16 01:37:11;;;;;;;3.4;1.2;;;;;;;5.64;56.65625;938.4731;;;;
2020/03/16 01:39:36;;;;;;;2.9;1.2;;;;;;;5.44;57.05859;938.5076;;;;
2020/03/16 01:42:01;;;;;;;1.8;1.2;;;;;;;5.5;57.03223;938.491;;;;
2020/03/16 01:44:26;;;;;;;2.5;1.1;;;;;;;5.48;56.55664;938.5173;;;;
2020/03/16 01:46:51;;;;;;;3;1.4;;;;;;;5.63;56.76758;938.472;;;;
2020/03/16 01:49:16;;;;;;;3;1.2;;;;;;;5.51;57.05664;938.5;;;;
2020/03/16 01:51:41;;;;;;;1.7;1.1;;;;;;;5.48;57.44727;938.4383;;;;
2020/03/16 01:54:06;;;;;;;1.8;1.2;;;;;;;5.54;57.5459;938.5103;;;;
2020/03/16 01:56:32;;;;;;;2.7;1.2;;;;;;;5.45;56.89063;938.4603;;;;
2020/03/16 01:58:57;;;;;;;2.7;1.2;;;;;;;5.57;57.04102;938.4889;;;;
2020/03/16 02:01:22;;;;;;;1.9;1;;;;;;;5.55;56.79102;938.5305;;;;
2020/03/16 02:03:51;;;;;;;1.7;1.1;;;;;;;5.27;58.15332;938.4621;;;;
2020/03/16 02:06:16;;;;;;;3;1.1;;;;;;;5.28;58.44824;938.4482;;;;
2020/03/16 02:08:41;;;;;;;6.5;1.7;;;;;;;5.27;58.94336;938.44;;;;
2020/03/16 02:11:06;;;;;;;3.1;1.1;;;;;;;4.98;59.52148;938.4858;;;;
2020/03/16 02:13:31;;;;;;;1.9;1.1;;;;;;;4.92;60.08887;938.5022;;;;
2020/03/16 02:15:56;;;;;;;1.2;1;;;;;;;4.8;60.83691;938.3845;;;;
2020/03/16 02:18:21;;;;;;;1.8;1.1;;;;;;;4.65;60.9502;938.4776;;;;
2020/03/16 02:20:47;;;;;;;2.4;1.1;;;;;;;4.61;61.0918;938.4677;;;;
2020/03/16 02:23:12;;;;;;;2;1.1;;;;;;;4.58;60.19824;938.4406;;;;
2020/03/16 02:25:37;;;;;;;1.7;1.2;;;;;;;4.69;60.24609;938.512;;;;
2020/03/16 02:28:04;;;;;;;5.6;1.2;;;;;;;4.76;60.54883;938.5117;;;;
2020/03/16 02:30:27;;;;;;;2.3;1.1;;;;;;;4.96;60.17188;938.5333;;;;
2020/03/16 02:35:20;;;;;;;1.6;1;;;;;;;4.72;59.1709;938.4626;;;;
2020/03/16 02:37:42;;;;;;;3.7;1.4;;;;;;;4.79;59.37109;938.449;;;;
2020/03/16 02:40:08;;;;;;;3;1.2;;;;;;;4.78;57.25195;938.4709;;;;
2020/03/16 02:42:33;;;;;;;1.6;1.2;;;;;;;4.95;57.5791;938.4163;;;;
2020/03/16 02:44:58;;;;;;;2.6;1.7;;;;;;;5.02;58.6709;938.5229;;;;
2020/03/16 02:47:23;;;;;;;7.7;2;;;;;;;4.95;59.21387;938.5197;;;;
2020/03/16 02:49:49;;;;;;;2.3;1.5;;;;;;;4.71;60.62109;938.6105;;;;
2020/03/16 02:52:14;;;;;;;2.7;1.5;;;;;;;4.64;61.02832;938.6075;;;;
2020/03/16 02:54:39;;;;;;;4.1;1.3;;;;;;;4.55;61.40918;938.6523;;;;
2020/03/16 02:57:05;;;;;;;2.6;1.2;;;;;;;4.52;61.30371;938.6814;;;;
2020/03/16 02:59:30;;;;;;;2.9;1.1;;;;;;;4.51;61.5625;938.697;;;;
2020/03/16 03:01:55;;;;;;;2;1.3;;;;;;;4.48;61.56738;938.6367;;;;
2020/03/16 03:04:20;;;;;;;3;1.5;;;;;;;4.26;63.19043;938.7427;;;;
2020/03/16 03:06:45;;;;;;;2.3;1.2;;;;;;;4.24;62.66992;938.7419;;;;
2020/03/16 03:09:11;;;;;;;2;1.1;;;;;;;4.14;62.91406;938.7525;;;;
2020/03/16 03:11:36;;;;;;;2.7;1.3;;;;;;;4.06;63.63281;938.8041;;;;
2020/03/16 03:14:01;;;;;;;2.7;1.2;;;;;;;4.13;62.32813;938.8113;;;;
2020/03/16 03:16:27;;;;;;;3.8;1.4;;;;;;;4.21;61.81152;938.8017;;;;
2020/03/16 03:18:52;;;;;;;2.5;1.1;;;;;;;4.29;61.66504;938.8084;;;;
2020/03/16 03:21:17;;;;;;;1.4;1.1;;;;;;;4.27;62.5957;938.7706;;;;
2020/03/16 03:23:43;;;;;;;2.7;1.3;;;;;;;4.24;62.71484;938.8281;;;;
2020/03/16 03:26:08;;;;;;;2.6;1.2;;;;;;;4.19;63.45117;938.848;;;;
2020/03/16 03:28:33;;;;;;;1.6;1.2;;;;;;;4.2;63.66602;938.8532;;;;
2020/03/16 03:30:58;;;;;;;2.7;2;;;;;;;3.87;64.85254;938.8477;;;;
2020/03/16 03:33:26;;;;;;;3.1;1.9;;;;;;;3.56;65.7373;938.9069;;;;
2020/03/16 03:35:49;;;;;;;6.2;3.5;;;;;;;3.5;66.00977;938.9772;;;;
2020/03/16 03:38:14;;;;;;;6.2;3;;;;;;;3.62;65.04004;939.0009;;;;
2020/03/16 03:40:39;;;;;;;3.7;2.3;;;;;;;3.88;63.50488;939.0314;;;;
2020/03/16 03:43:05;;;;;;;3.8;1.8;;;;;;;3.95;62.3252;938.9893;;;;
2020/03/16 03:45:30;;;;;;;10.7;2.5;;;;;;;4.11;63.17969;938.9478;;;;
2020/03/16 03:47:57;;;;;;;4.2;2.2;;;;;;;3.89;64.14746;939.0837;;;;
2020/03/16 03:50:20;;;;;;;4.4;2.2;;;;;;;3.93;63.99707;939.0831;;;;
2020/03/16 03:52:46;;;;;;;3.6;1.8;;;;;;;3.96;63.66309;939.1242;;;;
2020/03/16 03:55:11;;;;;;;3;1.7;;;;;;;3.97;63.00098;939.1663;;;;
2020/03/16 03:57:36;;;;;;;2.9;1.5;;;;;;;3.86;63.87305;939.1702;;;;
2020/03/16 04:00:01;;;;;;;3.4;1.8;;;;;;;3.97;63.6875;939.2095;;;;
2020/03/16 04:02:50;;;;;;;2.3;1.3;;;;;;;3.88;64.2373;939.1805;;;;
2020/03/16 04:04:55;;;;;;;3;1.4;;;;;;;3.68;65.71191;939.2263;;;;
2020/03/16 04:07:21;;;;;;;3.1;1.7;;;;;;;3.31;67.74414;939.2894;;;;
2020/03/16 04:09:45;;;;;;;4;1.9;;;;;;;3.13;68.28613;939.2161;;;;
2020/03/16 04:12:10;;;;;;;4.2;2.4;;;;;;;3.16;68.37012;939.3164;;;;
2020/03/16 04:14:35;;;;;;;4.1;2.6;;;;;;;3.03;68.79883;939.343;;;;
2020/03/16 04:17:00;;;;;;;6;3;;;;;;;2.72;70.28223;939.3887;;;;
2020/03/16 04:19:25;;;;;;;4.7;2.5;;;;;;;2.72;70.54199;939.4109;;;;
2020/03/16 04:21:50;;;;;;;3.9;2.5;;;;;;;2.81;70.21875;939.3557;;;;
2020/03/16 04:24:16;;;;;;;5.6;2.4;;;;;;;2.9;69.51563;939.3915;;;;
2020/03/16 04:26:41;;;;;;;4.3;2.3;;;;;;;2.99;69.54199;939.4233;;;;
2020/03/16 04:29:06;;;;;;;6.7;2.5;;;;;;;2.71;70.52734;939.437;;;;
2020/03/16 04:31:31;;;;;;;4.5;2.3;;;;;;;2.72;70.65234;939.428;;;;
2020/03/16 04:33:56;;;;;;;17.6;3.2;;;;;;;2.89;70.17773;939.4595;;;;
2020/03/16 04:36:21;;;;;;;6.4;2.1;;;;;;;2.9;70.04492;939.4444;;;;
2020/03/16 04:38:46;;;;;;;11.7;2.8;;;;;;;2.98;69.9668;939.5197;;;;
2020/03/16 04:41:11;;;;;;;10.1;2.4;;;;;;;2.94;70.05078;939.5433;;;;
2020/03/16 04:43:36;;;;;;;8.5;3.7;;;;;;;2.92;69.88867;939.6023;;;;
2020/03/16 04:46:01;;;;;;;10.4;3.4;;;;;;;2.94;69.87109;939.6442;;;;
2020/03/16 04:48:27;;;;;;;7.7;3.2;;;;;;;2.9;69.77539;939.6592;;;;
2020/03/16 04:50:52;;;;;;;5.3;2.6;;;;;;;3.05;69.2041;939.633;;;;
2020/03/16 04:53:17;;;;;;;10.7;4.1;;;;;;;2.88;69.05273;939.6786;;;;
2020/03/16 04:55:43;;;;;;;9.7;4.3;;;;;;;2.81;69.53613;939.6207;;;;
2020/03/16 04:58:08;;;;;;;8.7;4.3;;;;;;;2.87;69.34473;939.7161;;;;
2020/03/16 05:00:33;;;;;;;8.1;5;;;;;;;2.85;69.33887;939.73;;;;
2020/03/16 05:02:58;;;;;;;9.4;4.7;;;;;;;2.9;69.25977;939.6662;;;;
2020/03/16 05:05:23;;;;;;;15.4;4.4;;;;;;;2.8;69.4209;939.7465;;;;
2020/03/16 05:07:48;;;;;;;7.7;4.2;;;;;;;2.65;70.11523;939.7533;;;;
2020/03/16 05:10:13;;;;;;;7.6;4;;;;;;;2.7;70.30273;939.7852;;;;
2020/03/16 05:12:38;;;;;;;7.3;3.8;;;;;;;2.61;70.54492;939.7599;;;;
2020/03/16 05:15:03;;;;;;;127.6;17.7;;;;;;;2.65;70.54102;939.7766;;;;
2020/03/16 05:17:28;;;;;;;10.1;3.7;;;;;;;2.6;70.52051;939.7924;;;;
2020/03/16 05:19:54;;;;;;;6;3.1;;;;;;;2.71;70.02441;939.8312;;;;
2020/03/16 05:22:19;;;;;;;8.7;3.6;;;;;;;2.73;70.0498;939.9035;;;;
2020/03/16 05:24:44;;;;;;;5.9;3.1;;;;;;;2.66;70.06055;939.9327;;;;
2020/03/16 05:27:12;;;;;;;9.2;3.2;;;;;;;2.71;69.9668;939.9543;;;;
2020/03/16 05:29:34;;;;;;;11.6;3.1;;;;;;;2.74;69.88281;939.8812;;;;
2020/03/16 05:31:59;;;;;;;5.1;3;;;;;;;2.81;69.62598;939.918;;;;
2020/03/16 05:34:25;;;;;;;11.8;3.7;;;;;;;2.83;69.39355;939.9125;;;;
2020/03/16 05:36:50;;;;;;;9.6;4.1;;;;;;;2.82;68.97559;939.9467;;;;
2020/03/16 05:39:15;;;;;;;8.8;4.2;;;;;;;2.89;68.85449;939.9645;;;;
2020/03/16 05:41:40;;;;;;;6.8;2.9;;;;;;;2.85;68.9248;940.0123;;;;
2020/03/16 05:44:05;;;;;;;5.2;2.7;;;;;;;2.84;69.0918;940.0189;;;;
2020/03/16 05:46:30;;;;;;;9.9;4;;;;;;;2.9;69.25977;940.1144;;;;
2020/03/16 05:48:55;;;;;;;10.1;4.1;;;;;;;2.89;69.65039;940.0901;;;;
2020/03/16 05:51:20;;;;;;;11.5;3.9;;;;;;;2.83;70.23438;940.12;;;;
2020/03/16 05:53:46;;;;;;;13.8;5.6;;;;;;;2.9;69.98828;940.1358;;;;
2020/03/16 05:56:11;;;;;;;11;5;;;;;;;2.86;70.17188;940.1581;;;;
2020/03/16 05:58:36;;;;;;;11.7;5.9;;;;;;;2.99;69.63281;940.1858;;;;
2020/03/16 06:01:01;;;;;;;12.7;7.5;;;;;;;2.93;69.62305;940.2028;;;;
2020/03/16 06:03:26;;;;;;;24.1;13.4;;;;;;;3.03;69.52637;940.2056;;;;
2020/03/16 06:05:51;;;;;;;24.5;16.7;;;;;;;3.15;69.64746;940.3041;;;;
2020/03/16 06:08:16;;;;;;;22;13.5;;;;;;;3.96;66.91309;940.3483;;;;
2020/03/16 06:10:41;;;;;;;15.5;8.6;;;;;;;5.35;61.67285;940.2867;;;;
2020/03/16 06:13:07;;;;;;;21;9.9;;;;;;;6.39;57.45605;940.3197;;;;
2020/03/16 06:15:32;;;;;;;17.8;9;;;;;;;7.16;54.70508;940.2867;;;;
2020/03/16 06:17:57;;;;;;;15.5;5.1;;;;;;;7.86;51.39063;940.3047;;;;
2020/03/16 06:20:22;;;;;;;6.8;3.4;;;;;;;8.01;49.58008;940.3222;;;;
2020/03/16 06:22:47;;;;;;;11;4.3;;;;;;;8.34;48.3125;940.2551;;;;
2020/03/16 06:25:12;;;;;;;6.4;3.9;;;;;;;8.96;46.1416;940.3148;;;;
2020/03/16 06:27:37;;;;;;;4.4;2.6;;;;;;;9.2;44.07324;940.318;;;;
2020/03/16 06:30:02;;;;;;;3.6;1.6;;;;;;;9.43;43.17383;940.3264;;;;
2020/03/16 06:32:28;;;;;;;7.9;2.2;;;;;;;9.26;44.43164;940.2789;;;;
2020/03/16 06:34:53;;;;;;;9.7;3;;;;;;;9.72;43.60156;940.3808;;;;
2020/03/16 06:37:18;;;;;;;6.3;2.3;;;;;;;9.8;43.13086;940.3653;;;;
2020/03/16 06:39:44;;;;;;;3.7;1.6;;;;;;;9.83;43.38477;940.3415;;;;
2020/03/16 06:42:09;;;;;;;9;2.2;;;;;;;10.06;43.21289;940.4701;;;;
2020/03/16 06:44:34;;;;;;;18.4;3.2;;;;;;;10.01;43.73438;940.4614;;;;
2020/03/16 06:46:59;;;;;;;7.8;2.3;;;;;;;9.76;44.09473;940.4785;;;;
2020/03/16 06:49:24;;;;;;;44.6;7.4;;;;;;;9.83;45.11719;940.4822;;;;
2020/03/16 06:51:49;;;;;;;9.2;2.2;;;;;;;9.93;45.49219;940.5991;;;;
2020/03/16 06:54:14;;;;;;;7.9;2.5;;;;;;;10.45;44.46191;940.5814;;;;
2020/03/16 06:56:39;;;;;;;8.7;2.3;;;;;;;10.82;43.99805;940.6139;;;;
2020/03/16 06:59:04;;;;;;;7.2;2.4;;;;;;;11.48;42.1084;940.6465;;;;
2020/03/16 07:01:32;;;;;;;7.4;1.8;;;;;;;11.7;40.83691;940.6258;;;;
2020/03/16 07:03:54;;;;;;;6;1.8;;;;;;;11.78;39.40039;940.6305;;;;
2020/03/16 07:06:20;;;;;;;11.4;3.3;;;;;;;11.22;40.15039;940.6813;;;;
2020/03/16 07:08:44;;;;;;;6.1;2;;;;;;;11.78;38.30176;940.6172;;;;
2020/03/16 07:11:10;;;;;;;5.9;2;;;;;;;12.47;36.92969;940.577;;;;
2020/03/16 07:13:35;;;;;;;4;1.4;;;;;;;11.79;37.55762;940.6644;;;;
2020/03/16 07:16:00;;;;;;;4;1.5;;;;;;;11.93;37.68555;940.6802;;;;
2020/03/16 07:18:25;;;;;;;5.1;1.3;;;;;;;11.56;38.7627;940.7447;;;;
2020/03/16 07:20:50;;;;;;;3.5;1.3;;;;;;;12.06;38.49805;940.7597;;;;
2020/03/16 07:23:15;;;;;;;2.6;1.1;;;;;;;12.65;36.58789;940.6853;;;;
2020/03/16 07:25:41;;;;;;;3.9;1.2;;;;;;;12.34;37.36523;940.8754;;;;
2020/03/16 07:28:07;;;;;;;4.5;1.2;;;;;;;13.53;37.04297;940.8267;;;;
2020/03/16 07:30:31;;;;;;;2.5;1;;;;;;;13.34;36.1875;940.8172;;;;
2020/03/16 07:32:56;;;;;;;8.9;1.7;;;;;;;14.85;33.39453;940.803;;;;
2020/03/16 07:35:21;;;;;;;3.4;1.4;;;;;;;16.04;31.69434;940.8212;;;;
2020/03/16 07:37:46;;;;;;;3;1.2;;;;;;;16.96;30.47461;940.8014;;;;
2020/03/16 07:40:11;;;;;;;5.4;1.4;;;;;;;18.09;27.6377;940.8416;;;;
2020/03/16 07:42:36;;;;;;;2.9;1.1;;;;;;;19.47;25.76563;940.9008;;;;
2020/03/16 07:45:01;;;;;;;4.6;1.3;;;;;;;19.2;26.23828;940.9187;;;;
2020/03/16 07:47:26;;;;;;;3.5;1.3;;;;;;;20.17;25.26953;940.9423;;;;
2020/03/16 07:49:52;;;;;;;4.6;1.1;;;;;;;20.41;24.71094;940.9258;;;;
2020/03/16 07:52:17;;;;;;;3.9;1.1;;;;;;;19.48;24.63574;940.949;;;;
2020/03/16 07:54:43;;;;;;;1.8;1;;;;;;;19.53;25.50098;940.9738;;;;
2020/03/16 07:57:08;;;;;;;17.4;5.6;;;;;;;19.71;24.24023;940.9222;;;;
2020/03/16 07:59:33;;;;;;;3;1;;;;;;;18.86;26.19531;940.8828;;;;
2020/03/16 08:01:58;;;;;;;2;1.2;;;;;;;19.82;24.51465;940.9991;;;;
2020/03/16 08:04:23;;;;;;;3.1;1;;;;;;;20.84;24.03418;940.9556;;;;
2020/03/16 08:06:49;;;;;;;1.4;0.8;;;;;;;20.29;23.49023;940.9431;;;;
2020/03/16 08:09:14;;;;;;;2;0.8;;;;;;;21.04;22.89844;940.9055;;;;
2020/03/16 08:11:39;;;;;;;1.2;0.8;;;;;;;22;22.02148;940.873;;;;
2020/03/16 08:14:06;;;;;;;2.1;0.8;;;;;;;22.33;22.01465;940.8711;;;;
2020/03/16 08:16:31;;;;;;;2.3;1;;;;;;;23.57;20.8418;940.8861;;;;
2020/03/16 08:18:56;;;;;;;1.7;0.9;;;;;;;21.81;21.54395;940.8712;;;;
2020/03/16 08:21:22;;;;;;;1.5;1;;;;;;;21.84;22.21289;940.8964;;;;
2020/03/16 08:23:47;;;;;;;2.9;1;;;;;;;21.49;21.69238;941.0139;;;;
2020/03/16 08:26:12;;;;;;;3.2;1.1;;;;;;;22.89;21.77246;941.0022;;;;
2020/03/16 08:28:37;;;;;;;6.8;1.4;;;;;;;24.48;19.46973;941.0419;;;;
2020/03/16 08:31:03;;;;;;;6.3;1.2;;;;;;;25.08;18.16211;940.9872;;;;
2020/03/16 08:33:28;;;;;;;3.3;1;;;;;;;24.84;17.96387;940.9855;;;;
2020/03/16 08:35:53;;;;;;;3.4;0.9;;;;;;;24.98;18.46484;940.9235;;;;
2020/03/16 08:38:19;;;;;;;3.7;1;;;;;;;23.32;18.84277;941.0066;;;;
2020/03/16 08:40:44;;;;;;;2;1.2;;;;;;;21.49;20.47461;940.983;;;;
2020/03/16 08:43:09;;;;;;;8.4;1.3;;;;;;;21.92;21.20996;940.9655;;;;
2020/03/16 08:45:35;;;;;;;2.3;0.9;;;;;;;22.55;20.26563;940.8973;;;;
2020/03/16 08:48:00;;;;;;;0.9;0.8;;;;;;;20.82;20.72461;940.9562;;;;
2020/03/16 08:50:25;;;;;;;1.2;0.8;;;;;;;21.29;21.35449;940.9835;;;;
2020/03/16 08:52:50;;;;;;;1.4;0.8;;;;;;;22.26;21.41406;940.9476;;;;
2020/03/16 08:55:15;;;;;;;1.8;0.8;;;;;;;23.21;19.20313;940.9662;;;;
2020/03/16 08:57:40;;;;;;;2.6;0.9;;;;;;;22.86;19.48145;940.9595;;;;
2020/03/16 09:00:05;;;;;;;1.1;0.9;;;;;;;22.87;20.17383;940.9478;;;;
2020/03/16 09:02:30;;;;;;;3.8;1;;;;;;;24.13;19.04199;940.9893;;;;
2020/03/16 09:04:56;;;;;;;1.2;0.9;;;;;;;23.55;19.19336;940.942;;;;
2020/03/16 09:07:21;;;;;;;2.2;1.1;;;;;;;24.81;18.55273;940.9511;;;;
2020/03/16 09:09:46;;;;;;;1.3;0.9;;;;;;;25.05;17.58301;940.9583;;;;
2020/03/16 09:12:11;;;;;;;2.3;0.8;;;;;;;24.27;18.03516;940.9052;;;;
2020/03/16 09:14:36;;;;;;;1.7;0.8;;;;;;;23.84;18.45313;940.9928;;;;
2020/03/16 09:17:01;;;;;;;3.6;1;;;;;;;25.01;17.25098;940.9695;;;;
2020/03/16 09:19:26;;;;;;;5;1;;;;;;;25.35;17.24023;940.928;;;;
2020/03/16 09:21:51;;;;;;;4.9;0.9;;;;;;;26.03;17.78711;940.9688;;;;
2020/03/16 09:24:16;;;;;;;2.2;0.8;;;;;;;25.96;17.52441;940.9711;;;;
2020/03/16 09:26:41;;;;;;;1.6;0.9;;;;;;;26.46;16.44238;940.9177;;;;
2020/03/16 09:29:06;;;;;;;2.5;1;;;;;;;24.33;17.91992;940.9409;;;;
2020/03/16 09:31:32;;;;;;;1.8;0.9;;;;;;;25.5;17.86035;940.894;;;;
2020/03/16 09:33:57;;;;;;;1.2;0.9;;;;;;;25.63;17.38184;940.8514;;;;
2020/03/16 09:36:21;;;;;;;6.6;1.1;;;;;;;26.15;17.36621;940.84;;;;
2020/03/16 09:38:47;;;;;;;1.8;0.7;;;;;;;26.37;17.58789;940.8547;;;;
2020/03/16 09:41:12;;;;;;;4.3;0.9;;;;;;;26.2;17.46289;940.8656;;;;
2020/03/16 09:43:37;;;;;;;3.6;0.9;;;;;;;26.79;16.7627;940.8783;;;;
2020/03/16 09:46:02;;;;;;;1.6;0.9;;;;;;;27.21;16.57715;940.9177;;;;
2020/03/16 09:48:27;;;;;;;1.2;0.8;;;;;;;27.3;16.11719;940.8515;;;;
2020/03/16 09:50:54;;;;;;;1;0.7;;;;;;;27.39;15.55176;940.7953;;;;
2020/03/16 09:53:18;;;;;;;1.7;0.9;;;;;;;26.81;16.92969;940.793;;;;
2020/03/16 09:55:42;;;;;;;1.4;0.9;;;;;;;25.92;16.9668;940.817;;;;
2020/03/16 09:58:07;;;;;;;1.2;0.8;;;;;;;25.8;17.73047;940.8567;;;;
2020/03/16 10:00:32;;;;;;;1.3;0.9;;;;;;;25.74;17.92871;940.8625;;;;
2020/03/16 10:02:57;;;;;;;1.4;0.7;;;;;;;26.08;17.94238;940.8083;;;;
2020/03/16 10:05:22;;;;;;;0.9;0.7;;;;;;;25.99;16.38965;940.8564;;;;
2020/03/16 10:07:48;;;;;;;1;0.8;;;;;;;25.72;15.87207;940.8234;;;;
2020/03/16 10:10:13;;;;;;;1.3;0.8;;;;;;;26.34;15.75195;940.8127;;;;
2020/03/16 10:12:38;;;;;;;4.7;1.2;;;;;;;25.59;15.79688;940.7975;;;;
2020/03/16 10:15:03;;;;;;;1.1;0.7;;;;;;;25.84;16.25488;940.8345;;;;
2020/03/16 10:17:28;;;;;;;1.8;0.8;;;;;;;25.78;17.00879;940.8359;;;;
2020/03/16 10:19:53;;;;;;;2.5;0.7;;;;;;;26.02;16.54492;940.7929;;;;
2020/03/16 10:22:18;;;;;;;1.3;0.8;;;;;;;25.49;16.14746;940.8233;;;;
2020/03/16 10:24:43;;;;;;;1.6;0.7;;;;;;;25.56;17.85059;940.8152;;;;
2020/03/16 10:27:09;;;;;;;3.9;0.9;;;;;;;25.53;17.28223;940.8323;;;;
2020/03/16 10:29:34;;;;;;;1.9;0.9;;;;;;;25.64;17.79492;940.9312;;;;
2020/03/16 10:31:59;;;;;;;2.1;0.9;;;;;;;24.81;17.53809;940.9152;;;;
2020/03/16 10:34:24;;;;;;;2.1;0.6;;;;;;;25.33;18.94043;940.8934;;;;
2020/03/16 10:36:49;;;;;;;4.2;0.9;;;;;;;25.35;17.92578;940.8733;;;;
2020/03/16 10:39:14;;;;;;;1.5;0.7;;;;;;;24.81;18.8584;940.8951;;;;
2020/03/16 10:41:39;;;;;;;3;0.6;;;;;;;24.86;18.41309;940.9081;;;;
2020/03/16 10:44:04;;;;;;;2.2;0.7;;;;;;;23.92;19.69238;940.8247;;;;
2020/03/16 10:46:29;;;;;;;2.1;0.9;;;;;;;23.84;20.48926;940.9343;;;;
2020/03/16 10:48:55;;;;;;;1.6;1;;;;;;;24.59;19.6748;940.8769;;;;
2020/03/16 10:51:20;;;;;;;1.2;0.8;;;;;;;24;20.13184;940.8342;;;;
2020/03/16 10:53:45;;;;;;;2.5;0.7;;;;;;;24.54;19.16602;940.8462;;;;
2020/03/16 10:56:10;;;;;;;32.8;11.9;;;;;;;24.95;19.49023;940.8563;;;;
2020/03/16 10:58:35;;;;;;;11;3.3;;;;;;;24.31;20.51074;940.7911;;;;
2020/03/16 11:01:00;;;;;;;4.6;2;;;;;;;24.35;19.59375;940.7837;;;;
2020/03/16 11:03:25;;;;;;;7.5;3.2;;;;;;;25.41;18.34082;940.8389;;;;
2020/03/16 11:05:50;;;;;;;1.8;0.6;;;;;;;25.31;19.04492;940.8522;;;;
2020/03/16 11:08:15;;;;;;;1.2;0.6;;;;;;;26.09;18.08496;940.7761;;;;
2020/03/16 11:10:41;;;;;;;2.3;0.8;;;;;;;25.37;19.42578;940.8283;;;;
2020/03/16 11:13:06;;;;;;;1.3;0.8;;;;;;;26.81;17.48633;940.8105;;;;
2020/03/16 11:15:31;;;;;;;3.1;0.8;;;;;;;27.28;17.5166;940.8523;;;;
2020/03/16 11:17:56;;;;;;;17;6.7;;;;;;;27.88;17.23145;940.8042;;;;
2020/03/16 11:20:21;;;;;;;3.5;1.8;;;;;;;27.64;16.48633;940.8173;;;;
2020/03/16 11:22:46;;;;;;;2.8;0.8;;;;;;;28.24;15.88965;940.7877;;;;
2020/03/16 11:25:11;;;;;;;1.2;0.6;;;;;;;28.73;16.71582;940.8018;;;;
2020/03/16 11:27:37;;;;;;;1.8;0.9;;;;;;;28.02;16.38086;940.7844;;;;
2020/03/16 11:30:02;;;;;;;3;0.6;;;;;;;28.14;17.0625;940.7183;;;;
2020/03/16 11:32:28;;;;;;;0.9;0.7;;;;;;;28.26;16.52051;940.7794;;;;
2020/03/16 11:34:53;;;;;;;1.1;0.7;;;;;;;27.76;17.71289;940.7505;;;;
2020/03/16 11:37:19;;;;;;;2.1;0.9;;;;;;;28.54;15.90039;940.7191;;;;
2020/03/16 11:39:44;;;;;;;1.2;0.7;;;;;;;28.46;16.68262;940.7084;;;;
2020/03/16 11:42:10;;;;;;;1.3;0.7;;;;;;;29.27;15.42578;940.7492;;;;
2020/03/16 11:44:34;;;;;;;1.2;0.7;;;;;;;29.62;15.34277;940.6864;;;;
2020/03/16 11:47:00;;;;;;;3.1;0.9;;;;;;;28.5;16.29199;940.6972;;;;
2020/03/16 11:49:26;;;;;;;1.7;0.8;;;;;;;28.64;16.05859;940.7202;;;;
2020/03/16 11:51:51;;;;;;;3.5;1.1;;;;;;;29.95;14.90137;940.6516;;;;
2020/03/16 11:54:16;;;;;;;1.5;0.9;;;;;;;30.47;14.92969;940.6577;;;;
2020/03/16 11:56:42;;;;;;;2.2;1;;;;;;;27.93;17.33984;940.695;;;;
2020/03/16 11:59:07;;;;;;;1.5;0.8;;;;;;;27.14;18.92188;940.6578;;;;
2020/03/16 12:01:32;;;;;;;1.4;0.8;;;;;;;27.7;17.5918;940.5924;;;;
2020/03/16 12:03:57;;;;;;;1.9;1;;;;;;;28.3;17.98438;940.642;;;;
2020/03/16 12:06:23;;;;;;;1.6;0.8;;;;;;;30.27;14.37402;940.5829;;;;
2020/03/16 12:08:49;;;;;;;2.2;1.1;;;;;;;31.1;15.05762;940.5703;;;;
2020/03/16 12:11:14;;;;;;;2.2;0.8;;;;;;;31.06;13.86133;940.6431;;;;
2020/03/16 12:13:39;;;;;;;2.2;0.9;;;;;;;32.17;13.0918;940.6889;;;;
2020/03/16 12:16:05;;;;;;;1.7;0.8;;;;;;;31.34;13.96484;940.6321;;;;
2020/03/16 12:18:29;;;;;;;1.5;0.9;;;;;;;31.71;13.4375;940.6461;;;;
2020/03/16 12:20:55;;;;;;;2.1;0.9;;;;;;;30.76;15.16602;940.567;;;;
2020/03/16 12:23:20;;;;;;;1.6;0.8;;;;;;;31.32;14.43066;940.6516;;;;
2020/03/16 12:25:45;;;;;;;1.3;0.9;;;;;;;31.81;13.90723;940.6397;;;;
2020/03/16 12:28:10;;;;;;;1.9;0.8;;;;;;;29.13;16.39746;940.573;;;;
2020/03/16 12:30:36;;;;;;;1.3;0.9;;;;;;;29.46;16.23047;940.5761;;;;
2020/03/16 12:33:01;;;;;;;2.8;0.9;;;;;;;30.84;15.02539;940.6086;;;;
2020/03/16 12:35:26;;;;;;;2.3;0.9;;;;;;;32.81;13.50586;940.6242;;;;
2020/03/16 12:37:51;;;;;;;1.8;0.8;;;;;;;32.93;12.75293;940.6208;;;;
2020/03/16 12:40:16;;;;;;;3.9;1;;;;;;;32.47;14.16797;940.567;;;;
2020/03/16 12:42:41;;;;;;;1.7;1;;;;;;;29.75;16.88574;940.4871;;;;
2020/03/16 12:45:06;;;;;;;1.9;0.9;;;;;;;30.33;15.55762;940.5153;;;;
2020/03/16 12:47:31;;;;;;;1.9;0.9;;;;;;;31.68;14.04785;940.5396;;;;
2020/03/16 12:49:56;;;;;;;2.7;1.1;;;;;;;32.16;14.12207;940.5655;;;;
2020/03/16 12:52:21;;;;;;;1.7;0.8;;;;;;;33.09;13.33398;940.4963;;;;
2020/03/16 12:54:47;;;;;;;3.2;0.9;;;;;;;29.73;16.69336;940.4427;;;;
2020/03/16 12:57:12;;;;;;;2.4;1;;;;;;;29.43;16.80176;940.4867;;;;
2020/03/16 12:59:37;;;;;;;3.8;0.9;;;;;;;28.95;17.47461;940.5037;;;;
2020/03/16 13:02:02;;;;;;;1.7;1;;;;;;;30.03;15.90527;940.4828;;;;
2020/03/16 13:04:27;;;;;;;2.7;1.1;;;;;;;31;15.61621;940.4998;;;;
2020/03/16 13:06:52;;;;;;;1.7;0.8;;;;;;;28.55;18.3623;940.512;;;;
2020/03/16 13:09:17;;;;;;;1;0.7;;;;;;;29.16;17.61328;940.5653;;;;
2020/03/16 13:11:42;;;;;;;2.3;0.9;;;;;;;30.77;15.07129;940.4781;;;;
2020/03/16 13:14:07;;;;;;;2.9;1;;;;;;;31.4;14.74414;940.4697;;;;
2020/03/16 13:16:32;;;;;;;3.3;1;;;;;;;29.65;17.66797;940.4875;;;;
2020/03/16 13:18:57;;;;;;;1.9;0.8;;;;;;;30.2;15.61328;940.5201;;;;
2020/03/16 13:21:22;;;;;;;2.6;0.9;;;;;;;31.01;15.83203;940.5222;;;;
2020/03/16 13:23:47;;;;;;;2.1;1;;;;;;;29.36;16.90625;940.493;;;;
2020/03/16 13:26:12;;;;;;;2.5;1;;;;;;;29.11;16.76563;940.6205;;;;
2020/03/16 13:28:38;;;;;;;1.3;0.9;;;;;;;29.08;17.19336;940.5275;;;;
2020/03/16 13:31:04;;;;;;;3;0.9;;;;;;;29.11;17.27832;940.5405;;;;
2020/03/16 13:33:29;;;;;;;16;1.4;;;;;;;27.37;18.86035;940.5197;;;;
2020/03/16 13:35:54;;;;;;;2.5;1;;;;;;;26.49;20.06641;940.5861;;;;
2020/03/16 13:38:19;;;;;;;2.1;1;;;;;;;27.62;18.92969;940.6278;;;;
2020/03/16 13:40:44;;;;;;;3.8;1.2;;;;;;;28.32;17.75879;940.6439;;;;
2020/03/16 13:43:09;;;;;;;2.6;1;;;;;;;28.44;17.78711;940.6144;;;;
2020/03/16 13:45:34;;;;;;;2.6;1;;;;;;;29.01;16.82227;940.5759;;;;
2020/03/16 13:48:00;;;;;;;4;1.1;;;;;;;29.22;17.04395;940.564;;;;
2020/03/16 13:50:25;;;;;;;2.8;1;;;;;;;29.17;16.24414;940.6648;;;;
2020/03/16 13:52:50;;;;;;;2.4;1;;;;;;;28.09;17.39355;940.6323;;;;
2020/03/16 13:55:17;;;;;;;1.4;1;;;;;;;28.94;16.87891;940.6261;;;;
2020/03/16 13:57:41;;;;;;;2.1;0.9;;;;;;;28.54;17.29199;940.5978;;;;
2020/03/16 14:00:07;;;;;;;1.4;1;;;;;;;28.42;17.62012;940.7054;;;;
2020/03/16 14:02:32;;;;;;;1.5;0.8;;;;;;;28.53;16.50684;940.666;;;;
2020/03/16 14:04:58;;;;;;;1.7;1;;;;;;;29.33;16.73828;940.6669;;;;
2020/03/16 14:07:23;;;;;;;1.4;0.9;;;;;;;28.78;17.13477;940.6982;;;;
2020/03/16 14:09:48;;;;;;;3.2;1;;;;;;;27.53;17.73926;940.6779;;;;
2020/03/16 14:12:13;;;;;;;3.3;1;;;;;;;27.81;17.70313;940.6922;;;;
2020/03/16 14:14:38;;;;;;;2.4;0.9;;;;;;;27.71;18.09082;940.6564;;;;
2020/03/16 14:17:04;;;;;;;1.9;1;;;;;;;27.21;18.10645;940.6989;;;;
2020/03/16 14:19:29;;;;;;;2.6;0.9;;;;;;;27.6;17.68359;940.6788;;;;
2020/03/16 14:21:54;;;;;;;2.5;1;;;;;;;27.58;18.3584;940.7642;;;;